createdAt,value
2019-04-19T00:02:01.759Z,13.43
2019-04-19T00:04:26.512Z,11.43
2019-04-19T00:07:04.305Z,11.03
2019-04-19T00:09:39.114Z,13.10
2019-04-19T00:12:10.853Z,17.93
2019-04-19T00:14:27.895Z,12.33
2019-04-19T00:17:00.102Z,11.33
2019-04-19T00:19:44.658Z,11.80
2019-04-19T00:22:18.617Z,10.60
2019-04-19T00:24:31.898Z,9.97
2019-04-19T00:27:02.626Z,11.13
2019-04-19T00:29:42.855Z,20.47
2019-04-19T00:32:20.738Z,14.77
2019-04-19T00:34:37.676Z,10.67
2019-04-19T00:37:07.754Z,10.53
2019-04-19T00:39:52.749Z,8.83
2019-04-19T00:42:30.755Z,10.73
2019-04-19T00:45:04.614Z,9.77
2019-04-19T00:47:33.226Z,9.80
2019-04-19T00:49:57.896Z,9.37
2019-04-19T00:52:37.014Z,11.70
2019-04-19T00:54:56.670Z,11.33
2019-04-19T00:57:27.105Z,11.33
2019-04-19T00:59:50.579Z,12.37
2019-04-19T01:02:21.407Z,9.40
2019-04-19T01:04:55.661Z,14.83
2019-04-19T01:07:31.120Z,9.53
2019-04-19T01:10:09.880Z,10.70
2019-04-19T01:12:41.508Z,10.90
2019-04-19T01:15:09.729Z,13.00
2019-04-19T01:17:46.021Z,9.23
2019-04-19T01:20:03.957Z,11.90
2019-04-19T01:22:32.784Z,12.20
2019-04-19T01:25:03.529Z,14.83
2019-04-19T01:27:34.705Z,11.97
2019-04-19T01:30:02.987Z,11.80
2019-04-19T01:32:41.644Z,10.00
2019-04-19T01:35:13.333Z,9.97
2019-04-19T01:37:39.349Z,14.97
2019-04-19T01:40:26.001Z,13.20
2019-04-19T01:43:01.657Z,14.77
2019-04-19T01:45:29.339Z,11.77
2019-04-19T01:48:04.106Z,10.73
2019-04-19T01:50:44.208Z,10.10
2019-04-19T01:53:21.651Z,12.47
2019-04-19T01:55:35.096Z,10.77
2019-04-19T01:58:09.481Z,8.90
2019-04-19T02:00:39.807Z,12.10
2019-04-19T02:03:07.440Z,11.73
2019-04-19T02:05:36.146Z,10.03
2019-04-19T02:08:09.419Z,9.10
2019-04-19T02:11:23.219Z,11.47
2019-04-19T02:13:57.959Z,11.10
2019-04-19T02:16:23.042Z,9.73
2019-04-19T02:18:49.377Z,11.07
2019-04-19T02:21:24.695Z,13.70
2019-04-19T02:23:54.030Z,10.13
2019-04-19T02:26:21.276Z,12.27
2019-04-19T02:28:49.547Z,8.87
2019-04-19T02:31:43.545Z,12.07
2019-04-19T02:34:28.898Z,10.13
2019-04-19T02:37:00.618Z,12.47
2019-04-19T02:42:18.495Z,10.97
2019-04-19T02:44:17.082Z,11.27
2019-04-19T02:47:03.096Z,13.73
2019-04-19T02:49:28.278Z,15.97
2019-04-19T02:51:57.872Z,12.93
2019-04-19T02:54:34.743Z,11.17
2019-04-19T02:57:18.750Z,15.83
2019-04-19T03:02:31.445Z,11.63
2019-04-19T03:05:03.577Z,13.50
2019-04-19T03:07:06.062Z,11.53
2019-04-19T03:09:37.541Z,12.77
2019-04-19T03:12:19.837Z,13.67
2019-04-19T03:14:52.203Z,10.70
2019-04-19T03:17:24.502Z,14.67
2019-04-19T03:19:54.183Z,16.47
2019-04-19T03:22:23.128Z,13.17
2019-04-19T03:24:52.235Z,12.00
2019-04-19T03:27:15.259Z,15.13
2019-04-19T03:29:43.643Z,14.17
2019-04-19T03:35:01.513Z,16.77
2019-04-19T03:37:44.268Z,12.20
2019-04-19T03:40:06.078Z,15.33
2019-04-19T03:42:42.011Z,10.40
2019-04-19T03:45:08.634Z,13.83
2019-04-19T03:47:45.885Z,13.63
2019-04-19T03:50:11.911Z,14.07
2019-04-19T03:52:37.605Z,15.83
2019-04-19T03:55:08.762Z,15.17
2019-04-19T03:57:32.689Z,13.80
2019-04-19T03:59:52.289Z,12.87
2019-04-19T04:02:24.555Z,12.13
2019-04-19T04:04:59.536Z,11.37
2019-04-19T04:07:27.191Z,12.17
2019-04-19T04:09:59.753Z,13.27
2019-04-19T04:12:46.891Z,15.70
2019-04-19T04:15:36.928Z,12.30
2019-04-19T04:17:52.330Z,15.60
2019-04-19T04:20:22.141Z,14.83
2019-04-19T04:22:54.516Z,14.63
2019-04-19T04:25:27.595Z,15.87
2019-04-19T04:28:01.714Z,15.77
2019-04-19T04:30:29.636Z,13.07
2019-04-19T04:33:06.446Z,16.07
2019-04-19T04:35:41.366Z,13.97
2019-04-19T04:38:05.903Z,15.97
2019-04-19T04:40:25.458Z,12.80
2019-04-19T04:43:09.426Z,17.93
2019-04-19T04:45:49.340Z,19.13
2019-04-19T04:48:22.199Z,11.77
2019-04-19T04:51:04.423Z,15.17
2019-04-19T04:53:26.176Z,15.30
2019-04-19T04:56:02.071Z,15.73
2019-04-19T04:58:33.645Z,14.57
2019-04-19T05:01:05.269Z,14.53
2019-04-19T05:03:43.926Z,14.70
2019-04-19T05:06:19.061Z,16.40
2019-04-19T05:08:48.955Z,14.07
2019-04-19T05:11:16.058Z,13.90
2019-04-19T05:13:51.392Z,15.10
2019-04-19T05:16:32.327Z,14.33
2019-04-19T05:18:54.166Z,14.13
2019-04-19T05:21:27.500Z,18.30
2019-04-19T05:24:04.138Z,13.37
2019-04-19T05:28:54.347Z,16.37
2019-04-19T05:31:20.783Z,15.40
2019-04-19T05:34:00.508Z,14.87
2019-04-19T05:36:35.147Z,15.00
2019-04-19T05:39:09.604Z,11.77
2019-04-19T05:41:36.515Z,14.70
2019-04-19T05:44:25.487Z,13.00
2019-04-19T05:46:51.665Z,13.73
2019-04-19T05:49:18.129Z,13.83
2019-04-19T05:52:02.129Z,15.60
2019-04-19T05:54:06.411Z,13.40
2019-04-19T05:56:30.925Z,14.53
2019-04-19T05:59:08.874Z,13.17
2019-04-19T06:01:52.217Z,14.13
2019-04-19T06:04:21.011Z,13.50
2019-04-19T06:06:58.017Z,14.17
2019-04-19T06:09:06.894Z,17.27
2019-04-19T06:11:39.441Z,15.80
2019-04-19T06:14:29.294Z,18.00
2019-04-19T06:16:51.169Z,13.40
2019-04-19T06:19:27.604Z,13.63
2019-04-19T06:21:53.454Z,12.53
2019-04-19T06:24:31.899Z,13.43
2019-04-19T06:29:41.507Z,20.93
2019-04-19T06:32:12.990Z,14.83
2019-04-19T06:34:36.065Z,13.65
2019-04-19T06:37:00.629Z,17.32
2019-04-19T06:39:16.688Z,16.37
2019-04-19T06:41:54.021Z,14.87
2019-04-19T06:44:41.684Z,13.88
2019-04-19T06:46:57.583Z,14.00
2019-04-19T06:49:22.910Z,15.08
2019-04-19T06:51:54.294Z,13.32
2019-04-19T06:54:24.837Z,12.55
2019-04-19T06:56:57.493Z,14.25
2019-04-19T06:59:36.935Z,16.12
2019-04-19T07:01:53.961Z,12.70
2019-04-19T07:04:21.129Z,14.00
2019-04-19T07:07:09.465Z,13.28
2019-04-19T07:09:46.180Z,14.47
2019-04-19T07:12:14.846Z,12.78
2019-04-19T07:14:29.207Z,15.35
2019-04-19T07:17:10.888Z,12.80
2019-04-19T07:19:46.456Z,16.12
2019-04-19T07:22:10.659Z,11.78
2019-04-19T07:25:07.764Z,16.32
2019-04-19T07:27:31.156Z,15.55
2019-04-19T07:29:49.093Z,13.83
2019-04-19T07:32:27.388Z,13.65
2019-04-19T07:35:05.785Z,14.35
2019-04-19T07:37:41.924Z,14.13
2019-04-19T07:40:33.923Z,14.95
2019-04-19T07:43:02.221Z,23.60
2019-04-19T07:45:32.164Z,13.48
2019-04-19T07:48:02.127Z,12.82
2019-04-19T07:50:29.827Z,12.15
2019-04-19T07:53:00.654Z,13.53
2019-04-19T07:55:31.787Z,13.60
2019-04-19T07:58:30.043Z,14.00
2019-04-19T08:01:04.170Z,11.20
2019-04-19T08:03:52.959Z,11.88
2019-04-19T08:06:14.054Z,12.95
2019-04-19T08:08:47.349Z,13.20
2019-04-19T08:11:02.379Z,11.15
2019-04-19T08:28:16.094Z,12.75
2019-04-19T08:30:45.049Z,13.22
2019-04-19T08:33:13.188Z,11.22
2019-04-19T08:35:50.571Z,10.18
2019-04-19T08:38:25.188Z,9.85
2019-04-19T08:41:01.954Z,13.43
2019-04-19T08:43:38.758Z,12.78
2019-04-19T08:46:07.230Z,12.20
2019-04-19T08:48:53.456Z,11.78
2019-04-19T08:51:38.934Z,12.90
2019-04-19T08:54:27.266Z,14.35
2019-04-19T08:56:48.581Z,11.25
2019-04-19T08:59:39.653Z,9.48
2019-04-19T09:02:07.321Z,10.65
2019-04-19T09:04:34.466Z,11.65
2019-04-19T09:07:34.019Z,10.25
2019-04-19T09:09:39.332Z,13.83
2019-04-19T09:12:07.747Z,10.78
2019-04-19T09:14:39.798Z,10.90
2019-04-19T09:17:13.020Z,10.03
2019-04-19T09:19:56.286Z,11.20
2019-04-19T09:22:04.073Z,11.30
2019-04-19T09:24:31.067Z,11.55
2019-04-19T09:27:06.089Z,14.50
2019-04-19T09:29:40.122Z,11.90
2019-04-19T09:32:00.706Z,13.13
2019-04-19T09:34:23.574Z,11.38
2019-04-19T09:37:02.175Z,10.13
2019-04-19T09:39:34.705Z,8.43
2019-04-19T09:42:03.239Z,14.53
2019-04-19T09:44:40.173Z,10.58
2019-04-19T09:47:05.584Z,10.30
2019-04-19T09:49:50.170Z,11.90
2019-04-19T09:52:39.728Z,8.60
2019-04-19T09:55:13.545Z,8.93
2019-04-19T09:57:33.260Z,9.90
2019-04-19T09:59:51.672Z,12.65
2019-04-19T10:02:28.962Z,11.25
2019-04-19T10:04:53.233Z,10.68
2019-04-19T10:07:24.785Z,10.18
2019-04-19T10:10:01.510Z,10.03
2019-04-19T10:12:27.208Z,10.50
2019-04-19T10:14:59.763Z,12.30
2019-04-19T10:17:31.029Z,11.10
2019-04-19T10:20:08.746Z,11.20
2019-04-19T10:22:43.907Z,10.90
2019-04-19T10:25:12.325Z,9.98
2019-04-19T10:27:41.246Z,9.08
2019-04-19T10:30:14.675Z,8.50
2019-04-19T10:32:46.496Z,9.45
2019-04-19T10:35:19.700Z,11.10
2019-04-19T10:37:49.871Z,7.90
2019-04-19T10:40:19.801Z,8.18
2019-04-19T10:42:49.385Z,7.72
2019-04-19T10:45:18.693Z,5.00
2019-04-19T10:47:47.822Z,7.03
2019-04-19T10:50:30.313Z,7.05
2019-04-19T10:52:50.041Z,7.08
2019-04-19T10:55:20.595Z,8.38
2019-04-19T10:57:49.782Z,10.00
2019-04-19T11:00:19.599Z,7.03
2019-04-19T11:02:49.561Z,7.97
2019-04-19T11:05:20.721Z,6.47
2019-04-19T11:07:49.580Z,7.20
2019-04-19T11:10:19.847Z,7.53
2019-04-19T11:12:52.472Z,8.15
2019-04-19T11:15:24.566Z,6.17
2019-04-19T11:17:59.344Z,7.10
2019-04-19T11:20:40.311Z,7.37
2019-04-19T11:23:03.874Z,7.20
2019-04-19T11:25:35.829Z,7.55
2019-04-19T11:28:07.029Z,7.58
2019-04-19T11:30:37.200Z,4.40
2019-04-19T11:33:27.261Z,6.28
2019-04-19T11:35:59.501Z,9.05
2019-04-19T11:38:29.128Z,8.48
2019-04-19T11:41:01.036Z,4.17
2019-04-19T11:43:31.490Z,6.20
2019-04-19T11:46:02.372Z,5.08
2019-04-19T11:48:37.569Z,4.80
2019-04-19T11:51:07.678Z,5.80
2019-04-19T11:53:45.141Z,7.83
2019-04-19T11:56:18.868Z,6.40
2019-04-19T11:58:52.893Z,6.17
2019-04-19T12:01:27.976Z,6.40
2019-04-19T12:03:58.475Z,5.58
2019-04-19T12:06:27.412Z,7.37
2019-04-19T12:08:56.389Z,5.90
2019-04-19T12:11:30.547Z,4.67
2019-04-19T12:13:59.854Z,6.67
2019-04-19T12:16:28.781Z,6.45
2019-04-19T12:18:58.175Z,4.30
2019-04-19T12:21:27.340Z,4.60
2019-04-19T12:23:59.143Z,3.60
2019-04-19T12:26:31.904Z,4.85
2019-04-19T12:29:03.726Z,5.42
2019-04-19T12:31:31.640Z,3.92
2019-04-19T12:34:05.307Z,4.17
2019-04-19T12:36:35.130Z,4.25
2019-04-19T12:39:05.327Z,3.37
2019-04-19T12:41:35.386Z,5.12
2019-04-19T12:44:13.405Z,4.50
2019-04-19T12:46:48.968Z,6.45
2019-04-19T12:49:18.620Z,3.85
2019-04-19T12:51:48.122Z,3.83
2019-04-19T12:54:18.154Z,5.72
2019-04-19T12:56:47.645Z,3.12
2019-04-19T12:59:21.506Z,4.92
2019-04-19T13:01:51.727Z,3.85
2019-04-19T13:04:22.312Z,3.85
2019-04-19T13:07:11.070Z,3.72
2019-04-19T13:09:39.648Z,4.45
2019-04-19T13:12:11.304Z,4.47
2019-04-19T13:14:41.770Z,3.77
2019-04-19T13:17:12.446Z,4.12
2019-04-19T13:19:41.192Z,4.10
2019-04-19T13:22:18.549Z,4.85
2019-04-19T13:24:47.660Z,5.53
2019-04-19T13:27:19.117Z,7.28
2019-04-19T13:30:05.338Z,14.93
2019-04-19T13:32:29.952Z,5.30
2019-04-19T13:35:01.223Z,6.95
2019-04-19T13:37:41.130Z,6.35
2019-04-19T13:40:18.070Z,4.58
2019-04-19T13:42:55.222Z,4.72
2019-04-19T13:45:28.242Z,5.35
2019-04-19T13:47:58.701Z,4.05
2019-04-19T13:50:33.119Z,6.10
2019-04-19T13:53:02.536Z,6.25
2019-04-19T13:55:32.768Z,6.90
2019-04-19T13:58:01.990Z,4.90
2019-04-19T14:00:45.114Z,4.92
2019-04-19T14:03:13.860Z,5.92
2019-04-19T14:05:43.873Z,5.17
2019-04-19T14:08:17.332Z,4.60
2019-04-19T14:10:45.491Z,4.87
2019-04-19T14:13:16.992Z,5.67
2019-04-19T14:15:48.915Z,5.90
2019-04-19T14:18:18.990Z,6.50
2019-04-19T14:21:08.573Z,7.37
2019-04-19T14:23:37.568Z,5.22
2019-04-19T14:26:07.690Z,4.80
2019-04-19T14:28:36.634Z,7.00
2019-04-19T14:31:06.787Z,5.10
2019-04-19T14:33:36.993Z,5.62
2019-04-19T14:36:08.162Z,8.15
2019-04-19T14:38:39.467Z,6.47
2019-04-19T14:41:09.381Z,7.58
2019-04-19T14:43:42.649Z,6.28
2019-04-19T14:46:14.434Z,6.08
2019-04-19T14:48:43.596Z,5.50
2019-04-19T14:51:19.516Z,6.95
2019-04-19T14:53:45.020Z,6.70
2019-04-19T14:56:14.973Z,6.95
2019-04-19T14:58:45.899Z,8.68
2019-04-19T15:01:22.021Z,5.85
2019-04-19T15:03:53.039Z,5.78
2019-04-19T15:06:23.899Z,4.72
2019-04-19T15:08:53.765Z,5.47
2019-04-19T15:11:23.533Z,5.12
2019-04-19T15:13:55.680Z,6.65
2019-04-19T15:16:24.469Z,5.90
2019-04-19T15:18:53.172Z,4.35
2019-04-19T15:21:23.553Z,8.25
2019-04-19T15:23:52.629Z,5.37
2019-04-19T15:26:24.893Z,5.28
2019-04-19T15:28:53.674Z,6.28
2019-04-19T15:31:22.426Z,5.87
2019-04-19T15:33:52.603Z,4.95
2019-04-19T15:36:21.811Z,10.23
2019-04-19T15:38:53.113Z,5.80
2019-04-19T15:41:26.166Z,6.40
2019-04-19T15:43:54.286Z,4.90
2019-04-19T15:46:25.910Z,5.15
2019-04-19T15:48:56.732Z,6.58
2019-04-19T15:51:36.042Z,7.08
2019-04-19T15:54:06.111Z,6.55
2019-04-19T15:56:36.161Z,5.58
2019-04-19T15:59:09.422Z,5.72
2019-04-19T16:01:44.031Z,6.70
2019-04-19T16:04:21.834Z,6.65
2019-04-19T16:07:08.042Z,5.20
2019-04-19T16:10:01.699Z,7.45
2019-04-19T16:12:31.592Z,4.83
2019-04-19T16:15:02.419Z,5.40
2019-04-19T16:17:31.435Z,8.95
2019-04-19T16:20:00.208Z,5.83
2019-04-19T16:22:30.184Z,9.73
2019-04-19T16:24:59.106Z,8.25
2019-04-19T16:27:29.455Z,3.98
2019-04-19T16:29:59.912Z,5.62
2019-04-19T16:32:28.469Z,5.53
2019-04-19T16:34:59.947Z,6.25
2019-04-19T16:37:28.891Z,6.05
2019-04-19T16:39:58.204Z,6.50
2019-04-19T16:42:27.198Z,4.97
2019-04-19T16:44:59.692Z,6.20
2019-04-19T16:47:33.299Z,5.55
2019-04-19T16:50:02.894Z,5.62
2019-04-19T16:52:33.072Z,4.92
2019-04-19T16:55:02.919Z,3.72
2019-04-19T16:57:34.856Z,4.90
2019-04-19T17:00:07.037Z,6.95
2019-04-19T17:02:37.139Z,4.22
2019-04-19T17:05:08.563Z,5.35
2019-04-19T17:07:37.365Z,5.12
2019-04-19T17:10:07.737Z,4.75
2019-04-19T17:12:37.433Z,4.03
2019-04-19T17:15:26.103Z,4.12
2019-04-19T17:17:56.762Z,3.30
2019-04-19T17:20:27.823Z,6.15
2019-04-19T17:22:58.880Z,4.92
2019-04-19T17:25:30.798Z,5.83
2019-04-19T17:27:59.494Z,6.85
2019-04-19T17:30:36.193Z,6.17
2019-04-19T17:33:06.299Z,4.67
2019-04-19T17:35:36.327Z,4.95
2019-04-19T17:38:05.838Z,4.35
2019-04-19T17:40:36.788Z,5.80
2019-04-19T17:43:05.583Z,6.10
2019-04-19T17:45:36.026Z,4.80
2019-04-19T17:48:08.646Z,6.50
2019-04-19T17:50:40.274Z,4.35
2019-04-19T17:53:10.657Z,6.90
2019-04-19T17:55:51.010Z,6.35
2019-04-19T17:58:19.273Z,5.33
2019-04-19T18:00:48.949Z,4.12
2019-04-19T18:03:20.452Z,5.05
2019-04-19T18:05:51.905Z,3.70
2019-04-19T18:08:31.179Z,5.33
2019-04-19T18:11:03.442Z,3.65
2019-04-19T18:13:31.359Z,3.72
2019-04-19T18:16:00.661Z,7.17
2019-04-19T18:18:36.683Z,5.12
2019-04-19T18:21:01.890Z,4.62
2019-04-19T18:23:40.875Z,5.25
2019-04-19T18:26:03.347Z,4.25
2019-04-19T18:28:39.558Z,5.55
2019-04-19T18:31:04.068Z,5.12
2019-04-19T18:34:03.986Z,5.45
2019-04-19T18:36:17.203Z,4.75
2019-04-19T18:38:44.122Z,4.78
2019-04-19T18:41:18.887Z,3.67
2019-04-19T18:43:59.955Z,3.85
2019-04-19T18:46:22.756Z,4.03
2019-04-19T18:48:55.765Z,7.53
2019-04-19T18:51:34.769Z,5.72
2019-04-19T18:54:08.505Z,4.72
2019-04-19T18:56:33.297Z,5.80
2019-04-19T18:59:12.086Z,5.42
2019-04-19T19:01:37.844Z,3.22
2019-04-19T19:04:06.936Z,5.05
2019-04-19T19:06:41.457Z,9.33
2019-04-19T19:09:12.532Z,8.60
2019-04-19T19:11:38.693Z,4.90
2019-04-19T19:14:11.095Z,4.17
2019-04-19T19:16:40.309Z,6.55
2019-04-19T19:19:16.557Z,6.30
2019-04-19T19:22:02.238Z,6.53
2019-04-19T19:24:52.407Z,5.37
2019-04-19T19:27:10.354Z,8.88
2019-04-19T19:29:52.256Z,8.30
2019-04-19T19:32:22.469Z,7.90
2019-04-19T19:34:55.466Z,5.87
2019-04-19T19:37:31.994Z,7.85
2019-04-19T19:40:09.835Z,8.83
2019-04-19T19:42:56.161Z,5.72
2019-04-19T19:45:20.493Z,9.10
2019-04-19T19:48:12.855Z,6.62
2019-04-19T19:50:48.703Z,5.97
2019-04-19T19:52:59.586Z,5.75
2019-04-19T19:55:26.253Z,6.05
2019-04-19T19:57:52.907Z,7.85
2019-04-19T20:00:30.849Z,9.85
2019-04-19T20:03:00.525Z,6.83
2019-04-19T20:05:28.277Z,6.12
2019-04-19T20:07:55.395Z,6.37
2019-04-19T20:10:25.953Z,7.45
2019-04-19T20:12:57.958Z,7.50
2019-04-19T20:15:25.220Z,7.08
2019-04-19T20:17:57.911Z,11.12
2019-04-19T20:20:32.970Z,13.22
2019-04-19T20:22:58.291Z,10.18
2019-04-19T20:25:40.676Z,7.28
2019-04-19T20:28:03.009Z,8.85
2019-04-19T20:30:37.960Z,7.47
2019-04-19T20:33:02.759Z,8.18
2019-04-19T20:35:32.887Z,9.13
2019-04-19T20:38:07.283Z,9.53
2019-04-19T20:40:32.972Z,9.97
2019-04-19T20:43:20.816Z,6.58
2019-04-19T20:45:42.305Z,8.35
2019-04-19T20:48:13.089Z,6.20
2019-04-19T20:50:52.315Z,8.88
2019-04-19T20:53:21.679Z,7.95
2019-04-19T20:56:19.902Z,7.75
2019-04-19T20:58:31.899Z,9.10
2019-04-19T21:00:56.888Z,10.55
2019-04-19T21:03:34.371Z,6.30
2019-04-19T21:06:01.983Z,7.77
2019-04-19T21:08:38.738Z,9.53
2019-04-19T21:11:07.702Z,4.97
2019-04-19T21:13:38.203Z,12.30
2019-04-19T21:16:10.048Z,9.37
2019-04-19T21:18:43.269Z,5.57
2019-04-19T21:21:15.878Z,6.70
2019-04-19T21:23:45.262Z,8.40
2019-04-19T21:26:16.877Z,5.97
2019-04-19T21:28:53.194Z,8.57
2019-04-19T21:31:27.110Z,6.80
2019-04-19T21:33:57.749Z,7.72
2019-04-19T21:36:28.930Z,8.47
2019-04-19T21:39:00.106Z,7.33
2019-04-19T21:41:29.880Z,6.73
2019-04-19T21:43:54.915Z,7.33
2019-04-19T21:46:27.187Z,6.63
2019-04-19T21:48:55.071Z,9.20
2019-04-19T21:51:29.898Z,4.87
2019-04-19T21:53:54.469Z,10.23
2019-04-19T21:56:23.596Z,5.13
2019-04-19T21:58:55.048Z,9.13
2019-04-19T22:01:27.605Z,7.23
2019-04-19T22:04:03.580Z,7.13
2019-04-19T22:06:30.234Z,8.63
2019-04-19T22:08:59.244Z,8.17
2019-04-19T22:11:28.332Z,5.40
2019-04-19T22:14:19.415Z,4.77
2019-04-19T22:16:50.694Z,8.63
2019-04-19T22:19:25.237Z,6.23
2019-04-19T22:21:54.889Z,7.07
2019-04-19T22:24:33.534Z,5.70
2019-04-19T22:26:57.999Z,5.70
2019-04-19T22:29:27.491Z,6.33
2019-04-19T22:32:03.713Z,7.00
2019-04-19T22:34:30.865Z,11.13
2019-04-19T22:37:01.762Z,5.57
2019-04-19T22:39:30.053Z,7.20
2019-04-19T22:41:58.983Z,7.43
2019-04-19T22:44:27.839Z,11.80
2019-04-19T22:46:59.762Z,7.57
2019-04-19T22:49:35.729Z,5.93
2019-04-19T22:52:00.680Z,8.57
2019-04-19T22:54:32.884Z,7.63
2019-04-19T22:57:09.540Z,6.40
2019-04-19T22:59:31.998Z,7.37
2019-04-19T23:02:08.433Z,7.30
2019-04-19T23:04:39.048Z,6.13
2019-04-19T23:07:11.396Z,6.50
2019-04-19T23:09:38.837Z,5.13
2019-04-19T23:12:07.536Z,7.93
2019-04-19T23:14:52.492Z,8.37
2019-04-19T23:17:34.784Z,6.10
2019-04-19T23:19:59.245Z,10.43
2019-04-19T23:22:33.978Z,7.17
2019-04-19T23:25:03.155Z,7.30
2019-04-19T23:27:40.552Z,6.07
2019-04-19T23:30:23.522Z,8.13
2019-04-19T23:32:50.322Z,7.30
2019-04-19T23:35:21.078Z,7.80
2019-04-19T23:37:51.464Z,6.00
2019-04-19T23:40:28.281Z,8.03
2019-04-19T23:42:53.326Z,8.90
2019-04-19T23:45:26.548Z,11.40
2019-04-19T23:47:54.001Z,7.20
2019-04-19T23:50:27.937Z,7.70
2019-04-19T23:52:57.468Z,8.53
2019-04-19T23:55:24.501Z,8.33
2019-04-19T23:57:56.079Z,10.73
